createdAt,value
2022-10-16T00:02:06.837Z,1.00
2022-10-16T00:05:11.964Z,0.70
2022-10-16T00:08:16.888Z,0.60
2022-10-16T00:11:25.211Z,0.55
2022-10-16T00:14:30.102Z,0.75
2022-10-16T00:17:34.934Z,0.50
2022-10-16T00:20:40.442Z,0.70
2022-10-16T00:23:45.724Z,0.60
2022-10-16T00:26:53.709Z,0.55
2022-10-16T00:33:04.011Z,0.73
2022-10-16T00:36:10.024Z,0.70
2022-10-16T00:39:15.427Z,0.77
2022-10-16T00:42:22.241Z,0.60
2022-10-16T00:45:27.080Z,0.40
2022-10-16T00:48:32.404Z,0.80
2022-10-16T00:51:38.854Z,0.52
2022-10-16T00:54:46.083Z,0.80
2022-10-16T00:57:54.811Z,0.75
2022-10-16T01:00:59.949Z,0.88
2022-10-16T01:04:06.589Z,0.77
2022-10-16T01:07:17.246Z,0.80
2022-10-16T01:10:30.178Z,0.60
2022-10-16T01:13:43.777Z,0.80
2022-10-16T01:16:55.860Z,0.70
2022-10-16T01:20:10.790Z,0.50
2022-10-16T01:23:30.317Z,0.85
2022-10-16T01:26:45.215Z,1.10
2022-10-16T01:29:56.860Z,0.80
2022-10-16T01:33:08.417Z,0.70
2022-10-16T01:36:19.647Z,0.70
2022-10-16T01:39:32.534Z,0.80
2022-10-16T01:42:41.403Z,0.75
2022-10-16T01:45:49.053Z,0.80
2022-10-16T01:48:55.207Z,0.70
2022-10-16T01:52:03.630Z,0.80
2022-10-16T01:55:10.932Z,0.90
2022-10-16T01:58:17.038Z,0.60
2022-10-16T02:01:26.417Z,0.70
2022-10-16T02:04:35.826Z,0.70
2022-10-16T02:07:42.743Z,0.57
2022-10-16T02:10:47.439Z,0.70
2022-10-16T02:13:56.257Z,0.90
2022-10-16T02:17:04.468Z,0.75
2022-10-16T02:20:09.273Z,0.75
2022-10-16T02:23:20.003Z,0.60
2022-10-16T02:26:31.888Z,1.08
2022-10-16T02:29:42.257Z,0.60
2022-10-16T02:32:51.302Z,0.68
2022-10-16T02:35:57.278Z,0.80
2022-10-16T02:39:02.807Z,0.70
2022-10-16T02:42:08.592Z,1.10
2022-10-16T02:45:14.607Z,0.55
2022-10-16T02:48:21.229Z,1.00
2022-10-16T02:51:26.565Z,0.90
2022-10-16T02:54:31.714Z,0.68
2022-10-16T02:57:38.164Z,0.80
2022-10-16T03:00:45.037Z,0.80
2022-10-16T03:03:51.625Z,0.85
2022-10-16T03:06:56.547Z,0.68
2022-10-16T03:10:01.698Z,1.30
2022-10-16T03:13:07.655Z,0.70
2022-10-16T03:16:12.722Z,0.88
2022-10-16T03:19:19.773Z,0.73
2022-10-16T03:22:24.826Z,0.70
2022-10-16T03:25:29.997Z,0.80
2022-10-16T03:28:34.907Z,0.60
2022-10-16T03:31:39.776Z,1.30
2022-10-16T03:34:46.450Z,0.70
2022-10-16T03:37:51.350Z,0.98
2022-10-16T03:40:57.870Z,0.70
2022-10-16T03:44:01.205Z,0.65
2022-10-16T03:47:03.862Z,0.77
2022-10-16T03:50:09.645Z,0.80
2022-10-16T03:53:16.152Z,0.90
2022-10-16T03:56:19.367Z,0.68
2022-10-16T03:59:21.974Z,0.80
2022-10-16T04:02:24.700Z,0.70
2022-10-16T04:05:28.914Z,0.75
2022-10-16T04:08:31.579Z,0.77
2022-10-16T04:11:34.545Z,0.70
2022-10-16T04:14:37.596Z,0.70
2022-10-16T04:17:40.325Z,0.95
2022-10-16T04:20:44.302Z,1.00
2022-10-16T04:23:46.966Z,0.80
2022-10-16T04:26:49.579Z,0.70
2022-10-16T04:29:52.236Z,0.80
2022-10-16T04:32:55.142Z,0.63
2022-10-16T04:36:03.357Z,0.52
2022-10-16T04:39:06.012Z,0.80
2022-10-16T04:42:08.642Z,1.10
2022-10-16T04:45:14.739Z,0.88
2022-10-16T04:48:19.981Z,1.00
2022-10-16T04:51:24.013Z,0.93
2022-10-16T04:54:26.823Z,0.90
2022-10-16T04:57:29.855Z,0.60
2022-10-16T05:00:32.477Z,0.77
2022-10-16T05:03:35.188Z,0.70
2022-10-16T05:06:40.393Z,1.10
2022-10-16T05:09:43.033Z,0.93
2022-10-16T05:12:45.760Z,0.60
2022-10-16T05:15:49.121Z,0.88
2022-10-16T05:18:56.185Z,1.13
2022-10-16T05:22:08.573Z,0.85
2022-10-16T05:25:11.249Z,0.80
2022-10-16T05:28:13.873Z,0.85
2022-10-16T05:31:16.534Z,0.93
2022-10-16T05:34:19.302Z,1.00
2022-10-16T05:37:23.644Z,0.82
2022-10-16T05:40:26.510Z,0.60
2022-10-16T05:43:29.805Z,0.70
2022-10-16T05:46:32.440Z,1.10
2022-10-16T05:49:37.862Z,1.10
2022-10-16T05:52:44.450Z,1.00
2022-10-16T05:55:53.968Z,0.88
2022-10-16T05:58:57.101Z,0.80
2022-10-16T06:01:59.872Z,0.63
2022-10-16T06:05:02.491Z,0.88
2022-10-16T06:08:06.649Z,0.80
2022-10-16T06:11:11.565Z,0.77
2022-10-16T06:14:14.268Z,1.00
2022-10-16T06:17:17.177Z,0.70
2022-10-16T06:20:19.797Z,0.85
2022-10-16T06:23:24.549Z,0.73
2022-10-16T06:26:28.436Z,1.00
2022-10-16T06:29:31.065Z,1.02
2022-10-16T06:32:33.702Z,1.08
2022-10-16T06:35:36.357Z,1.10
2022-10-16T06:38:41.080Z,0.80
2022-10-16T06:41:43.705Z,0.82
2022-10-16T06:44:46.377Z,1.00
2022-10-16T06:47:49.388Z,1.25
2022-10-16T06:50:59.500Z,1.42
2022-10-16T06:54:04.627Z,1.08
2022-10-16T06:57:07.376Z,0.88
2022-10-16T07:00:10.764Z,0.90
2022-10-16T07:03:13.410Z,0.82
2022-10-16T07:06:18.246Z,0.90
2022-10-16T07:09:22.384Z,1.08
2022-10-16T07:12:25.380Z,0.98
2022-10-16T07:15:28.340Z,0.90
2022-10-16T07:18:33.116Z,1.10
2022-10-16T07:21:37.406Z,1.00
2022-10-16T07:24:42.788Z,0.77
2022-10-16T07:27:45.647Z,1.10
2022-10-16T07:30:48.254Z,1.00
2022-10-16T07:33:51.153Z,0.90
2022-10-16T07:36:53.817Z,0.82
2022-10-16T07:39:57.788Z,1.13
2022-10-16T07:43:03.033Z,0.77
2022-10-16T07:46:06.632Z,0.90
2022-10-16T07:49:10.833Z,0.98
2022-10-16T07:52:13.454Z,1.30
2022-10-16T07:55:17.752Z,0.90
2022-10-16T07:58:20.399Z,1.00
2022-10-16T08:01:23.120Z,1.10
2022-10-16T08:04:25.785Z,0.95
2022-10-16T08:07:28.809Z,1.10
2022-10-16T08:10:32.974Z,1.00
2022-10-16T08:13:36.010Z,1.10
2022-10-16T08:16:38.656Z,0.93
2022-10-16T08:19:41.288Z,1.90
2022-10-16T08:22:43.871Z,1.08
2022-10-16T08:25:47.868Z,1.05
2022-10-16T08:28:51.798Z,0.70
2022-10-16T08:31:54.501Z,0.90
2022-10-16T08:34:57.132Z,1.00
2022-10-16T08:37:59.770Z,1.00
2022-10-16T08:41:22.001Z,0.93
2022-10-16T08:44:41.617Z,1.35
2022-10-16T08:47:50.780Z,1.02
2022-10-16T08:50:54.957Z,0.90
2022-10-16T08:53:59.677Z,1.00
2022-10-16T08:57:11.766Z,0.98
2022-10-16T09:00:16.575Z,0.80
2022-10-16T09:03:31.269Z,0.82
2022-10-16T09:06:45.361Z,0.95
2022-10-16T09:10:16.905Z,0.80
2022-10-16T09:13:28.258Z,0.60
2022-10-16T09:16:35.959Z,0.70
2022-10-16T09:19:43.944Z,0.85
2022-10-16T09:22:46.581Z,0.73
2022-10-16T09:25:52.027Z,0.88
2022-10-16T09:28:56.186Z,0.90
2022-10-16T09:32:14.151Z,0.90
2022-10-16T09:35:20.111Z,0.50
2022-10-16T09:38:25.929Z,0.63
2022-10-16T09:41:28.721Z,0.70
2022-10-16T09:44:33.715Z,1.02
2022-10-16T09:47:41.746Z,0.75
2022-10-16T09:50:44.492Z,0.80
2022-10-16T09:53:48.483Z,0.80
2022-10-16T09:56:52.951Z,0.80
2022-10-16T09:59:59.373Z,1.10
2022-10-16T10:03:02.156Z,1.05
2022-10-16T10:06:18.313Z,0.90
2022-10-16T10:09:23.567Z,0.90
2022-10-16T10:12:27.448Z,0.75
2022-10-16T10:15:36.581Z,0.75
2022-10-16T10:18:39.210Z,0.82
2022-10-16T10:21:41.984Z,0.88
2022-10-16T10:24:46.371Z,1.10
2022-10-16T10:28:12.975Z,0.95
2022-10-16T10:31:24.270Z,1.00
2022-10-16T10:34:42.041Z,0.80
2022-10-16T10:37:57.296Z,1.10
2022-10-16T10:41:19.130Z,0.80
2022-10-16T10:44:33.089Z,0.73
2022-10-16T10:47:45.978Z,0.70
2022-10-16T10:50:53.878Z,0.85
2022-10-16T10:54:06.776Z,0.52
2022-10-16T10:57:17.089Z,0.75
2022-10-16T11:00:25.226Z,0.80
2022-10-16T11:03:44.690Z,0.80
2022-10-16T11:06:51.453Z,0.90
2022-10-16T11:09:57.702Z,0.88
2022-10-16T11:13:12.778Z,0.90
2022-10-16T11:16:21.588Z,1.02
2022-10-16T11:19:37.501Z,1.02
2022-10-16T11:22:44.459Z,1.13
2022-10-16T11:25:49.309Z,0.68
2022-10-16T11:28:56.268Z,0.63
2022-10-16T11:32:02.398Z,0.82
2022-10-16T11:35:16.627Z,0.80
2022-10-16T11:38:35.217Z,0.70
2022-10-16T11:41:44.116Z,0.60
2022-10-16T11:44:57.262Z,0.90
2022-10-16T11:48:04.288Z,0.90
2022-10-16T11:51:13.427Z,0.70
2022-10-16T11:54:23.365Z,0.80
2022-10-16T11:57:30.212Z,0.80
2022-10-16T12:00:40.374Z,1.00
2022-10-16T12:03:50.753Z,0.70
2022-10-16T12:07:01.003Z,0.80
2022-10-16T12:10:12.578Z,0.80
2022-10-16T12:13:35.486Z,0.60
2022-10-16T12:16:40.033Z,0.52
2022-10-16T12:19:42.849Z,0.70
2022-10-16T12:22:55.019Z,1.58
2022-10-16T12:25:59.595Z,3.17
2022-10-16T12:29:16.338Z,1.88
2022-10-16T12:32:47.523Z,1.02
2022-10-16T12:35:50.691Z,3.20
2022-10-16T12:38:55.771Z,1.38
2022-10-16T12:42:07.085Z,0.90
2022-10-16T12:45:27.076Z,0.70
2022-10-16T12:48:37.100Z,0.90
2022-10-16T12:51:51.362Z,0.60
2022-10-16T12:55:00.085Z,0.90
2022-10-16T12:58:25.216Z,0.70
2022-10-16T13:01:38.950Z,0.80
2022-10-16T13:04:59.553Z,0.90
2022-10-16T13:08:18.825Z,0.65
2022-10-16T13:11:29.733Z,0.80
2022-10-16T13:14:52.640Z,0.63
2022-10-16T13:18:06.608Z,0.82
2022-10-16T13:21:27.206Z,0.70
2022-10-16T13:24:54.794Z,0.80
2022-10-16T13:28:07.237Z,0.80
2022-10-16T13:31:18.073Z,0.70
2022-10-16T13:34:24.491Z,0.60
2022-10-16T13:37:28.707Z,0.90
2022-10-16T13:40:31.687Z,1.10
2022-10-16T13:43:38.264Z,1.02
2022-10-16T13:46:42.667Z,0.93
2022-10-16T13:49:45.453Z,0.93
2022-10-16T13:52:48.174Z,0.98
2022-10-16T13:55:50.819Z,1.20
2022-10-16T13:59:02.549Z,1.20
2022-10-16T14:02:16.959Z,0.82
2022-10-16T14:05:19.756Z,1.20
2022-10-16T14:08:23.417Z,1.50
2022-10-16T14:11:27.029Z,1.30
2022-10-16T14:14:36.707Z,1.00
2022-10-16T14:17:47.990Z,0.93
2022-10-16T14:20:51.578Z,0.73
2022-10-16T14:23:54.862Z,0.90
2022-10-16T14:26:57.790Z,1.00
2022-10-16T14:30:16.088Z,0.82
2022-10-16T14:33:26.088Z,1.10
2022-10-16T14:36:30.138Z,1.05
2022-10-16T14:39:32.913Z,0.95
2022-10-16T14:42:37.152Z,1.05
2022-10-16T14:45:44.096Z,1.08
2022-10-16T14:48:49.753Z,0.90
2022-10-16T14:51:52.976Z,1.08
2022-10-16T14:54:57.372Z,1.08
2022-10-16T14:58:00.944Z,1.00
2022-10-16T15:01:07.784Z,1.05
2022-10-16T15:04:13.334Z,1.23
2022-10-16T15:07:16.143Z,1.08
2022-10-16T15:10:20.097Z,1.10
2022-10-16T15:13:22.774Z,0.98
2022-10-16T15:16:26.785Z,1.23
2022-10-16T15:19:29.608Z,1.10
2022-10-16T15:22:32.251Z,1.15
2022-10-16T15:25:40.541Z,1.20
2022-10-16T15:28:43.345Z,1.08
2022-10-16T15:31:48.582Z,1.08
2022-10-16T15:34:51.563Z,1.00
2022-10-16T15:37:54.287Z,1.17
2022-10-16T15:40:57.535Z,1.67
2022-10-16T15:44:06.338Z,1.00
2022-10-16T15:47:14.853Z,1.35
2022-10-16T15:50:21.315Z,1.38
2022-10-16T15:53:27.668Z,1.20
2022-10-16T15:56:35.322Z,1.52
2022-10-16T15:59:43.151Z,1.20
2022-10-16T16:02:53.159Z,1.40
2022-10-16T16:05:56.775Z,1.23
2022-10-16T16:12:06.026Z,1.25
2022-10-16T16:15:15.790Z,0.93
2022-10-16T16:18:24.518Z,1.20
2022-10-16T16:21:32.214Z,1.20
2022-10-16T16:24:35.603Z,1.20
2022-10-16T16:27:40.165Z,1.00
2022-10-16T16:30:44.832Z,0.93
2022-10-16T16:34:06.477Z,1.15
2022-10-16T16:37:45.421Z,1.08
2022-10-16T16:41:03.321Z,0.90
2022-10-16T16:44:26.251Z,1.40
2022-10-16T16:47:59.763Z,1.05
2022-10-16T16:55:24.125Z,0.80
2022-10-16T16:58:32.646Z,1.23
2022-10-16T17:01:40.619Z,1.45
2022-10-16T17:04:51.155Z,1.23
2022-10-16T17:07:59.038Z,1.42
2022-10-16T17:11:20.707Z,1.23
2022-10-16T17:14:31.231Z,1.10
2022-10-16T17:17:38.751Z,1.33
2022-10-16T17:20:44.909Z,1.40
2022-10-16T17:23:55.596Z,1.35
2022-10-16T17:27:07.177Z,1.33
2022-10-16T17:30:14.749Z,1.15
2022-10-16T17:33:37.120Z,1.40
2022-10-16T17:36:58.202Z,1.15
2022-10-16T17:40:15.232Z,1.40
2022-10-16T17:43:37.901Z,1.40
2022-10-16T17:46:42.068Z,1.70
2022-10-16T17:50:00.814Z,1.30
2022-10-16T17:53:11.812Z,1.75
2022-10-16T17:56:21.149Z,1.80
2022-10-16T17:59:35.484Z,1.55
2022-10-16T18:02:45.728Z,1.75
2022-10-16T18:05:57.717Z,2.00
2022-10-16T18:09:22.418Z,1.58
2022-10-16T18:12:30.605Z,1.67
2022-10-16T18:15:42.957Z,1.70
2022-10-16T18:18:54.203Z,1.80
2022-10-16T18:22:01.620Z,1.85
2022-10-16T18:25:10.052Z,1.95
2022-10-16T18:28:17.874Z,2.28
2022-10-16T18:31:26.878Z,2.40
2022-10-16T18:34:35.007Z,2.67
2022-10-16T18:37:42.982Z,2.13
2022-10-16T18:40:52.940Z,1.70
2022-10-16T18:44:00.540Z,1.90
2022-10-16T18:47:09.382Z,2.67
2022-10-16T18:50:16.449Z,2.10
2022-10-16T18:53:26.406Z,1.88
2022-10-16T18:56:35.555Z,2.17
2022-10-16T18:59:45.795Z,1.73
2022-10-16T19:02:58.616Z,1.70
2022-10-16T19:06:07.344Z,1.90
2022-10-16T19:13:07.528Z,1.60
2022-10-16T19:20:06.292Z,1.60
2022-10-16T19:23:26.019Z,1.63
2022-10-16T19:26:56.647Z,1.65
2022-10-16T19:30:04.591Z,1.38
2022-10-16T19:33:14.503Z,1.30
2022-10-16T19:36:31.996Z,1.30
2022-10-16T19:43:05.142Z,1.60
2022-10-16T19:46:11.037Z,1.25
2022-10-16T19:49:21.259Z,1.70
2022-10-16T19:52:31.347Z,1.30
2022-10-16T19:55:35.432Z,1.40
2022-10-16T19:58:39.984Z,1.30
2022-10-16T20:01:45.639Z,1.30
2022-10-16T20:04:52.256Z,1.67
2022-10-16T20:07:59.956Z,1.77
2022-10-16T20:11:14.906Z,1.60
2022-10-16T20:14:23.665Z,1.52
2022-10-16T20:21:03.187Z,1.27
2022-10-16T20:24:10.525Z,1.50
2022-10-16T20:27:17.195Z,1.30
2022-10-16T20:30:21.844Z,1.60
2022-10-16T20:33:26.327Z,1.20
2022-10-16T20:36:36.162Z,1.08
2022-10-16T20:39:45.806Z,1.67
2022-10-16T20:42:53.442Z,1.45
2022-10-16T20:46:04.817Z,1.60
2022-10-16T20:49:28.259Z,1.80
2022-10-16T20:52:39.794Z,2.00
2022-10-16T20:55:47.845Z,1.98
2022-10-16T20:58:59.461Z,1.67
2022-10-16T21:02:07.817Z,1.88
2022-10-16T21:05:15.532Z,1.65
2022-10-16T21:12:00.659Z,1.60
2022-10-16T21:15:16.784Z,1.88
2022-10-16T21:18:25.970Z,1.60
2022-10-16T21:21:38.397Z,1.90
2022-10-16T21:31:58.629Z,1.52
2022-10-16T21:35:15.520Z,1.75
2022-10-16T21:38:19.764Z,2.20
2022-10-16T21:41:32.081Z,1.70
2022-10-16T21:44:39.839Z,1.63
2022-10-16T21:47:48.379Z,1.90
2022-10-16T21:50:54.655Z,2.00
2022-10-16T21:54:04.380Z,1.95
2022-10-16T21:57:11.389Z,2.13
2022-10-16T22:00:16.522Z,1.80
2022-10-16T22:03:19.670Z,1.92
2022-10-16T22:06:25.636Z,1.90
2022-10-16T22:09:28.695Z,2.25
2022-10-16T22:12:32.245Z,2.03
2022-10-16T22:15:36.523Z,3.10
2022-10-16T22:18:40.407Z,2.30
2022-10-16T22:21:45.968Z,1.63
2022-10-16T22:24:51.143Z,1.92
2022-10-16T22:27:54.087Z,2.20
2022-10-16T22:31:02.332Z,1.92
2022-10-16T22:34:06.032Z,2.33
2022-10-16T22:37:12.271Z,2.08
2022-10-16T22:40:15.061Z,2.00
2022-10-16T22:43:17.931Z,2.08
2022-10-16T22:46:24.077Z,2.00
2022-10-16T22:49:26.999Z,2.08
2022-10-16T22:52:32.146Z,2.03
2022-10-16T22:55:35.308Z,2.03
2022-10-16T22:58:38.653Z,2.28
2022-10-16T23:01:43.499Z,2.20
2022-10-16T23:04:46.239Z,1.98
2022-10-16T23:07:49.861Z,1.83
2022-10-16T23:10:52.978Z,2.47
2022-10-16T23:13:56.393Z,1.92
2022-10-16T23:17:00.572Z,1.75
2022-10-16T23:20:03.294Z,1.80
2022-10-16T23:23:06.079Z,1.55
2022-10-16T23:26:11.159Z,1.77
2022-10-16T23:29:13.888Z,1.85
2022-10-16T23:32:18.288Z,1.60
2022-10-16T23:35:21.527Z,1.73
2022-10-16T23:38:24.615Z,1.63
2022-10-16T23:41:27.515Z,1.77
2022-10-16T23:44:30.360Z,1.63
2022-10-16T23:47:34.884Z,1.80
2022-10-16T23:50:37.817Z,1.60
2022-10-16T23:53:41.389Z,1.50
2022-10-16T23:56:44.387Z,1.73
2022-10-16T23:59:47.199Z,1.67
